Terminal Aerodrome Forecast
Issued by NWS Flagstaff, AZ

Home | Current Version | Previous Version | Text Only | Print | Product List | Glossary On
Versions: 1 2 3 4 5 6 7 8 9 10 11 12 13 14 15 16 17 18 19 20 21 22 23
348
FTUS45 KFGZ 182322
TAFFLG
TAF
KFLG 182322Z 1900/1924 24011KT P6SM FEW040 BKN200
     FM190900 23010G17KT P6SM SCT020 BKN080 OVC100 PROB30 1911/1914
      4SM -SHSN OVC020
     FM191400 23011G19KT 2SM -SN BR BKN008 OVC012
      TEMPO 1920/1924 1SM -SN BR VV008=

USA.gov is the U.S. government's official web portal to all federal, state and local government web resources and services.